Time;durP1;ratioP1;P1;durP2;ratioP2;P2;SDS_P1;SDS_P2;PMS_P1;PMS_P2;Temp;Humidity;BMP_temperature;BMP_pressure;BME280_temperature;BME280_humidity;BME280_pressure;Samples;Min_cycle;Max_cycle;Signal;HPM_P1;HPM_P2
2022/08/28 00:02:08;;;;;;;2.30;2.20;;;23.90;63.90;;;;;;5000170;28;20061;-20
2022/08/28 00:04:34;;;;;;;2.55;2.45;;;23.90;63.70;;;;;;4996208;28;20068;-20
2022/08/28 00:07:00;;;;;;;2.33;2.22;;;23.90;63.60;;;;;;4997189;28;20133;-21
2022/08/28 00:09:26;;;;;;;2.60;2.50;;;23.90;63.60;;;;;;5001833;28;20046;-20
2022/08/28 00:11:52;;;;;;;2.20;2.10;;;23.90;63.70;;;;;;5000152;28;20174;-21
2022/08/28 00:14:19;;;;;;;2.15;2.05;;;23.80;63.60;;;;;;4999043;28;20076;-22
2022/08/28 00:16:46;;;;;;;2.03;1.92;;;23.90;63.70;;;;;;5004051;28;20121;-20
2022/08/28 00:19:12;;;;;;;2.58;2.38;;;23.90;63.60;;;;;;5003788;28;20049;-20
2022/08/28 00:21:38;;;;;;;2.17;2.00;;;23.90;63.80;;;;;;4999942;28;20053;-21
2022/08/28 00:24:04;;;;;;;2.35;2.20;;;23.80;63.70;;;;;;5015306;28;20045;-23
2022/08/28 00:29:13;;;;;;;2.47;2.38;;;23.80;63.80;;;;;;5001239;28;20087;-20
2022/08/28 00:31:39;;;;;;;2.25;2.15;;;23.90;63.80;;;;;;5000488;28;20070;-19
2022/08/28 00:34:06;;;;;;;2.20;2.10;;;23.80;63.70;;;;;;5010553;28;20486;-20
2022/08/28 00:36:32;;;;;;;2.17;2.08;;;23.80;63.80;;;;;;5004082;28;20050;-25
2022/08/28 00:38:59;;;;;;;2.10;2.00;;;23.90;63.80;;;;;;5004733;28;20432;-20
2022/08/28 00:41:25;;;;;;;2.10;2.00;;;23.90;63.70;;;;;;5007256;28;20070;-20
2022/08/28 00:43:52;;;;;;;2.30;2.20;;;23.80;63.80;;;;;;5009377;28;20034;-21
2022/08/28 00:46:19;;;;;;;2.20;2.10;;;23.80;63.70;;;;;;5004108;28;20050;-21
2022/08/28 00:48:45;;;;;;;2.00;1.90;;;23.90;63.60;;;;;;5003531;28;20169;-20
2022/08/28 00:53:56;;;;;;;1.67;1.58;;;23.90;63.60;;;;;;4997069;28;20103;-32
2022/08/28 00:56:21;;;;;;;2.10;2.00;;;23.80;63.70;;;;;;4988243;28;20050;-22
2022/08/28 00:58:47;;;;;;;1.83;1.73;;;23.80;63.80;;;;;;4998678;28;20792;-20
2022/08/28 01:01:13;;;;;;;2.13;2.03;;;23.80;63.70;;;;;;4985065;28;20050;-20
2022/08/28 01:03:39;;;;;;;2.15;1.98;;;23.80;63.70;;;;;;5001174;28;20424;-20
2022/08/28 01:06:04;;;;;;;1.92;1.83;;;23.90;63.70;;;;;;5013837;28;20034;-22
2022/08/28 01:08:30;;;;;;;1.52;1.42;;;23.80;63.70;;;;;;5001422;28;20038;-21
2022/08/28 01:10:56;;;;;;;1.98;1.88;;;23.80;63.80;;;;;;5001157;28;20041;-21
2022/08/28 01:13:22;;;;;;;1.83;1.73;;;23.90;63.80;;;;;;5005255;28;20054;-21
2022/08/28 01:15:48;;;;;;;2.10;1.90;;;23.80;63.70;;;;;;5011417;28;20057;-20
2022/08/28 01:18:14;;;;;;;1.50;1.40;;;23.90;63.80;;;;;;5010459;28;20046;-26
2022/08/28 01:20:46;;;;;;;2.03;1.80;;;23.80;63.70;;;;;;4986469;28;20869;-23
2022/08/28 01:23:16;;;;;;;1.90;1.80;;;23.80;63.70;;;;;;5004013;28;20050;-21
2022/08/28 01:25:41;;;;;;;1.98;1.88;;;23.90;63.70;;;;;;5002636;28;20042;-26
2022/08/28 01:28:10;;;;;;;1.83;1.73;;;23.80;63.60;;;;;;4999245;28;20408;-21
2022/08/28 01:30:37;;;;;;;1.80;1.70;;;23.80;64.60;;;;;;5006986;28;20042;-23
2022/08/28 01:33:03;;;;;;;1.73;1.63;;;23.80;63.90;;;;;;4999848;28;20112;-20
2022/08/28 01:35:30;;;;;;;1.45;1.45;;;23.80;63.80;;;;;;4999242;28;20454;-20
2022/08/28 01:37:56;;;;;;;2.30;2.10;;;23.80;64.00;;;;;;5012347;28;20046;-24
2022/08/28 01:40:30;;;;;;;1.60;1.50;;;23.80;63.70;;;;;;5009832;28;20516;-20
2022/08/28 01:43:00;;;;;;;;;;;23.80;63.70;;;;;;5002794;28;20046;-20
2022/08/28 01:45:26;;;;;;;1.85;1.75;;;23.80;63.80;;;;;;5011460;28;20403;-20
2022/08/28 01:47:51;;;;;;;1.60;1.50;;;23.80;63.70;;;;;;4998852;28;20045;-24
2022/08/28 01:50:18;;;;;;;1.65;1.55;;;23.80;63.90;;;;;;4997999;28;20446;-21
2022/08/28 01:52:44;;;;;;;1.33;1.30;;;23.80;63.90;;;;;;5004727;28;20497;-20
2022/08/28 01:55:09;;;;;;;1.25;1.25;;;23.80;63.90;;;;;;5003168;28;20084;-21
2022/08/28 01:57:40;;;;;;;1.50;1.40;;;23.80;63.80;;;;;;5011855;28;20040;-22
2022/08/28 02:00:07;;;;;;;1.30;1.30;;;23.80;63.70;;;;;;4988049;28;20058;-23
2022/08/28 02:02:32;;;;;;;1.10;1.10;;;23.80;63.60;;;;;;4999881;28;20087;-20
2022/08/28 02:04:58;;;;;;;1.55;1.45;;;23.80;63.70;;;;;;4997291;28;20514;-21
2022/08/28 02:07:23;;;;;;;1.58;1.48;;;23.70;63.80;;;;;;4998918;28;20041;-21
2022/08/28 02:09:49;;;;;;;1.73;1.63;;;23.80;63.80;;;;;;5005520;28;20089;-23
2022/08/28 02:12:15;;;;;;;1.40;1.40;;;23.80;63.80;;;;;;4997591;28;20129;-20
2022/08/28 02:14:40;;;;;;;1.10;1.10;;;23.80;63.70;;;;;;5000808;28;20068;-24
2022/08/28 02:17:06;;;;;;;1.50;1.40;;;23.70;63.70;;;;;;5005006;28;20050;-21
2022/08/28 02:19:31;;;;;;;1.05;1.05;;;23.80;63.80;;;;;;5006693;28;20648;-21
2022/08/28 02:21:57;;;;;;;1.52;1.20;;;23.70;63.80;;;;;;5006585;28;20132;-21
2022/08/28 02:24:23;;;;;;;1.42;1.33;;;23.70;63.80;;;;;;4996070;28;20054;-25
2022/08/28 02:26:48;;;;;;;1.50;1.40;;;23.80;63.70;;;;;;5000105;28;20096;-20
2022/08/28 02:29:14;;;;;;;1.30;1.30;;;23.80;63.70;;;;;;5004892;28;20045;-23
2022/08/28 02:31:39;;;;;;;1.00;1.00;;;23.80;63.60;;;;;;5000678;28;20073;-21
2022/08/28 02:34:05;;;;;;;1.30;1.20;;;23.80;63.70;;;;;;5002075;28;20449;-20
2022/08/28 02:36:30;;;;;;;1.10;1.10;;;23.70;63.70;;;;;;5019330;28;20044;-21
2022/08/28 02:38:56;;;;;;;1.20;1.20;;;23.80;63.70;;;;;;5017366;28;20091;-21
2022/08/28 02:41:22;;;;;;;1.40;1.30;;;23.70;63.70;;;;;;5002417;28;20408;-21
2022/08/28 02:43:47;;;;;;;1.30;1.30;;;23.70;63.80;;;;;;5000918;28;20041;-21
2022/08/28 02:46:13;;;;;;;1.25;1.15;;;23.80;63.70;;;;;;4999620;28;20037;-21
2022/08/28 02:48:39;;;;;;;1.25;1.25;;;23.70;63.60;;;;;;5001527;28;20093;-20
2022/08/28 02:51:07;;;;;;;1.00;1.00;;;23.70;63.50;;;;;;5001493;28;20067;-20
2022/08/28 02:53:33;;;;;;;1.40;1.27;;;23.70;64.50;;;;;;5001339;28;20038;-20
2022/08/28 02:56:00;;;;;;;1.30;1.20;;;23.70;63.60;;;;;;5006677;28;20046;-20
2022/08/28 02:58:26;;;;;;;1.17;1.15;;;23.70;63.70;;;;;;4995673;28;20116;-20
2022/08/28 03:00:53;;;;;;;1.00;1.00;;;23.70;63.70;;;;;;4994005;28;20183;-20
2022/08/28 03:03:19;;;;;;;1.10;1.10;;;23.70;63.60;;;;;;4996063;28;20053;-22
2022/08/28 03:05:45;;;;;;;1.00;1.00;;;23.70;63.50;;;;;;4999074;28;20042;-21
2022/08/28 03:08:10;;;;;;;1.02;1.02;;;23.70;63.60;;;;;;5015544;28;20125;-22
2022/08/28 03:10:36;;;;;;;1.15;1.15;;;23.70;63.50;;;;;;5000080;28;20073;-21
2022/08/28 03:13:02;;;;;;;1.13;1.13;;;23.80;63.60;;;;;;5005303;28;20038;-20
2022/08/28 03:15:27;;;;;;;1.08;1.08;;;23.70;63.60;;;;;;5000261;28;20042;-20
2022/08/28 03:17:53;;;;;;;1.00;1.00;;;23.80;63.60;;;;;;4993736;28;20049;-20
2022/08/28 03:20:18;;;;;;;1.52;1.42;;;23.70;63.60;;;;;;4997674;28;20457;-20
2022/08/28 03:25:28;;;;;;;1.23;1.23;;;23.70;63.60;;;;;;4997050;28;20071;-25
2022/08/28 03:27:54;;;;;;;1.00;1.00;;;23.70;63.60;;;;;;4998909;28;20073;-20
2022/08/28 03:30:20;;;;;;;1.10;1.10;;;23.70;63.60;;;;;;5001020;28;20065;-21
2022/08/28 03:32:45;;;;;;;1.08;1.08;;;23.70;63.50;;;;;;5001173;28;20072;-21
2022/08/28 03:35:11;;;;;;;1.27;1.10;;;23.70;63.50;;;;;;4998362;28;20145;-20
2022/08/28 03:37:36;;;;;;;1.10;1.10;;;23.70;63.40;;;;;;5011652;28;20484;-20
2022/08/28 03:40:03;;;;;;;0.93;0.93;;;23.70;63.60;;;;;;5003799;28;20038;-21
2022/08/28 03:42:30;;;;;;;1.00;1.00;;;23.70;63.50;;;;;;5005905;28;20044;-20
2022/08/28 03:44:56;;;;;;;1.23;1.23;;;23.70;63.60;;;;;;4998049;28;20038;-22
2022/08/28 03:47:23;;;;;;;1.27;1.27;;;23.70;63.50;;;;;;5003305;28;20043;-24
2022/08/28 03:49:54;;;;;;;0.90;0.90;;;23.70;63.60;;;;;;5011956;28;20038;-20
2022/08/28 03:52:19;;;;;;;1.15;1.05;;;23.70;63.40;;;;;;5014651;28;20422;-20
2022/08/28 03:54:46;;;;;;;0.93;0.93;;;23.70;63.40;;;;;;5009009;28;20046;-21
2022/08/28 03:57:17;;;;;;;0.82;0.82;;;23.70;63.40;;;;;;4999069;28;20050;-22
2022/08/28 03:59:43;;;;;;;0.80;0.80;;;23.70;63.40;;;;;;5004665;28;23478;-23
2022/08/28 04:02:08;;;;;;;0.95;0.95;;;23.70;63.40;;;;;;5006157;28;20069;-20
2022/08/28 04:04:34;;;;;;;1.25;1.25;;;23.70;63.50;;;;;;5003490;28;20106;-21
2022/08/28 04:06:59;;;;;;;0.90;0.90;;;23.70;63.40;;;;;;5007104;28;20055;-20
2022/08/28 04:09:25;;;;;;;0.73;0.73;;;23.70;63.50;;;;;;4999274;28;20080;-32
2022/08/28 04:11:52;;;;;;;0.95;0.95;;;23.70;63.40;;;;;;5000093;28;20969;-24
2022/08/28 04:14:17;;;;;;;0.98;0.98;;;23.70;63.40;;;;;;5001863;28;20066;-21
2022/08/28 04:16:43;;;;;;;0.80;0.80;;;23.70;63.40;;;;;;5001815;28;20099;-20
2022/08/28 04:19:09;;;;;;;0.90;0.90;;;23.70;63.40;;;;;;5000225;28;20057;-22
2022/08/28 04:21:34;;;;;;;0.90;0.90;;;23.70;63.40;;;;;;5001664;28;20038;-21
2022/08/28 04:24:00;;;;;;;0.80;0.80;;;23.70;63.40;;;;;;4998291;28;20132;-21
2022/08/28 04:26:26;;;;;;;0.93;0.90;;;23.70;63.40;;;;;;5000276;28;20501;-20
2022/08/28 04:28:52;;;;;;;0.80;0.80;;;23.60;63.30;;;;;;5006171;28;21107;-24
2022/08/28 04:31:17;;;;;;;0.90;0.90;;;23.70;63.40;;;;;;4998879;28;22261;-23
2022/08/28 04:33:43;;;;;;;0.90;0.90;;;23.60;63.30;;;;;;5007958;28;20082;-22
2022/08/28 04:36:11;;;;;;;0.80;0.80;;;23.70;63.40;;;;;;4999782;28;20045;-20
2022/08/28 04:38:37;;;;;;;0.80;0.80;;;23.70;63.40;;;;;;4996667;28;20533;-21
2022/08/28 04:41:06;;;;;;;0.80;0.77;;;23.70;63.40;;;;;;4997520;28;20039;-22
2022/08/28 04:43:32;;;;;;;0.95;0.95;;;23.70;63.40;;;;;;5016644;28;20065;-20
2022/08/28 04:45:58;;;;;;;0.80;0.80;;;23.60;63.30;;;;;;5015043;28;20499;-23
2022/08/28 04:48:24;;;;;;;0.90;0.90;;;23.60;63.30;;;;;;5000462;28;20088;-20
2022/08/28 04:50:49;;;;;;;0.73;0.73;;;23.60;63.30;;;;;;4999562;28;20518;-21
2022/08/28 04:53:17;;;;;;;0.75;0.75;;;23.70;63.40;;;;;;5001091;28;20042;-21
2022/08/28 04:55:45;;;;;;;1.00;1.00;;;23.60;63.30;;;;;;4997912;28;20042;-20
2022/08/28 04:58:10;;;;;;;0.73;0.73;;;23.70;63.40;;;;;;4998783;28;20456;-20
2022/08/28 05:00:37;;;;;;;1.00;1.00;;;23.60;63.30;;;;;;5000922;28;20234;-22
2022/08/28 05:03:03;;;;;;;0.77;0.77;;;23.70;63.30;;;;;;5003104;28;20157;-22
2022/08/28 05:05:28;;;;;;;0.88;0.88;;;23.60;63.30;;;;;;4996571;28;20145;-21
2022/08/28 05:07:54;;;;;;;0.70;0.70;;;23.70;63.30;;;;;;5003974;28;20084;-21
2022/08/28 05:10:20;;;;;;;0.65;0.65;;;23.60;63.30;;;;;;4999105;28;20455;-20
2022/08/28 05:12:45;;;;;;;0.90;0.90;;;23.70;63.40;;;;;;5011348;28;20053;-22
2022/08/28 05:15:11;;;;;;;0.70;0.70;;;23.70;63.40;;;;;;5002045;28;20046;-20
2022/08/28 05:17:36;;;;;;;0.95;0.95;;;23.60;63.30;;;;;;5005685;28;20518;-23
2022/08/28 05:20:03;;;;;;;0.80;0.80;;;23.60;63.30;;;;;;5003030;28;20054;-20
2022/08/28 05:22:30;;;;;;;0.65;0.65;;;23.60;63.20;;;;;;5005132;28;20065;-20
2022/08/28 05:24:55;;;;;;;0.60;0.60;;;23.70;63.30;;;;;;5000302;28;20038;-21
2022/08/28 05:27:23;;;;;;;1.00;1.00;;;23.60;63.20;;;;;;5001198;28;20052;-21
2022/08/28 05:29:49;;;;;;;0.60;0.60;;;23.60;63.30;;;;;;5000588;28;20109;-21
2022/08/28 05:32:15;;;;;;;0.75;0.75;;;23.60;63.30;;;;;;5001580;28;20045;-20
2022/08/28 05:34:40;;;;;;;0.65;0.65;;;23.60;63.20;;;;;;4996988;28;20046;-23
2022/08/28 05:37:07;;;;;;;0.70;0.70;;;23.60;63.80;;;;;;4998777;28;20540;-21
2022/08/28 05:39:33;;;;;;;0.60;0.60;;;23.60;63.30;;;;;;4998609;28;20041;-22
2022/08/28 05:41:58;;;;;;;1.02;1.00;;;23.60;63.20;;;;;;4998375;28;20103;-25
2022/08/28 05:44:24;;;;;;;0.57;0.57;;;23.60;63.10;;;;;;5000772;28;20046;-21
2022/08/28 05:46:50;;;;;;;1.05;0.60;;;23.40;62.50;;;;;;5003079;28;21501;-21
2022/08/28 05:49:18;;;;;;;0.63;0.63;;;23.30;60.90;;;;;;5003737;28;20042;-20
2022/08/28 05:51:43;;;;;;;0.50;0.50;;;23.10;59.40;;;;;;5001736;28;20068;-24
2022/08/28 05:54:09;;;;;;;0.63;0.60;;;23.00;58.90;;;;;;5001190;28;20408;-20
2022/08/28 05:56:35;;;;;;;1.65;0.82;;;23.00;58.70;;;;;;5002254;28;20663;-22
2022/08/28 05:59:01;;;;;;;0.90;0.90;;;23.00;58.60;;;;;;5002223;28;20068;-27
2022/08/28 06:01:28;;;;;;;0.60;0.52;;;22.90;59.00;;;;;;5000094;28;20088;-20
2022/08/28 06:03:55;;;;;;;1.13;0.60;;;22.90;58.40;;;;;;5004122;28;20046;-20
2022/08/28 06:06:23;;;;;;;0.98;0.50;;;22.80;58.70;;;;;;4998989;28;20134;-22
2022/08/28 06:08:50;;;;;;;0.57;0.57;;;22.70;58.50;;;;;;4999067;28;20065;-20
2022/08/28 06:11:18;;;;;;;0.45;0.40;;;22.70;58.50;;;;;;5001928;28;20121;-22
2022/08/28 06:13:43;;;;;;;0.77;0.65;;;22.60;59.30;;;;;;5002616;28;20052;-20
2022/08/28 06:16:10;;;;;;;0.80;0.60;;;22.60;59.20;;;;;;5002820;28;20161;-20
2022/08/28 06:18:36;;;;;;;0.60;0.60;;;22.50;58.80;;;;;;5002677;28;20050;-21
2022/08/28 06:21:01;;;;;;;0.57;0.57;;;22.50;59.00;;;;;;5000996;28;20045;-21
2022/08/28 06:23:27;;;;;;;1.13;0.75;;;22.50;58.90;;;;;;5009100;28;20098;-25
2022/08/28 06:25:52;;;;;;;0.68;0.50;;;22.50;59.00;;;;;;5003787;28;20034;-21
2022/08/28 06:28:20;;;;;;;1.20;0.60;;;22.40;59.10;;;;;;5010053;28;20054;-20
2022/08/28 06:30:46;;;;;;;2.40;0.65;;;22.40;59.30;;;;;;5005352;28;20061;-20
2022/08/28 06:33:12;;;;;;;1.27;0.80;;;22.30;59.60;;;;;;5001896;28;20084;-21
2022/08/28 06:35:48;;;;;;;0.63;0.63;;;22.20;59.70;;;;;;4998908;28;20042;-21
2022/08/28 06:38:14;;;;;;;0.73;0.50;;;22.30;59.80;;;;;;4998134;28;20535;-21
2022/08/28 06:40:41;;;;;;;1.02;0.50;;;22.20;59.80;;;;;;4998313;28;20038;-29
2022/08/28 06:43:07;;;;;;;0.93;0.60;;;22.20;59.80;;;;;;5001419;28;20604;-20
2022/08/28 06:45:33;;;;;;;0.57;0.57;;;22.20;60.10;;;;;;5003621;28;20128;-20
2022/08/28 06:47:58;;;;;;;0.68;0.68;;;22.20;60.20;;;;;;4998814;28;20091;-20
2022/08/28 06:50:24;;;;;;;0.50;0.50;;;22.20;60.30;;;;;;4999353;28;20480;-20
2022/08/28 06:52:49;;;;;;;0.95;0.70;;;22.20;60.40;;;;;;5000373;28;20048;-21
2022/08/28 06:55:15;;;;;;;0.82;0.82;;;22.20;60.60;;;;;;4998463;28;20046;-23
2022/08/28 06:57:40;;;;;;;1.02;0.80;;;22.20;60.70;;;;;;5004422;28;20157;-22
2022/08/28 07:00:07;;;;;;;0.68;0.68;;;22.10;60.90;;;;;;4998253;28;20042;-20
2022/08/28 07:02:33;;;;;;;0.60;0.60;;;22.10;60.90;;;;;;5006231;28;20062;-27
2022/08/28 07:04:59;;;;;;;0.60;0.60;;;22.10;61.20;;;;;;5003279;28;20543;-21
2022/08/28 07:07:25;;;;;;;0.80;0.80;;;22.10;61.20;;;;;;5007312;28;20119;-21
2022/08/28 07:09:51;;;;;;;0.60;0.60;;;22.20;61.40;;;;;;4999940;28;21305;-20
2022/08/28 07:12:17;;;;;;;1.13;0.60;;;22.00;61.40;;;;;;5000479;28;20129;-21
2022/08/28 07:14:43;;;;;;;1.55;0.80;;;22.00;61.60;;;;;;4999663;28;20053;-20
2022/08/28 07:17:09;;;;;;;1.25;0.55;;;22.10;61.60;;;;;;4995848;28;20054;-21
2022/08/28 07:19:34;;;;;;;0.60;0.52;;;22.10;61.80;;;;;;5004927;28;20563;-25
2022/08/28 07:22:00;;;;;;;1.15;0.60;;;22.10;61.60;;;;;;4995684;28;20086;-20
2022/08/28 07:24:25;;;;;;;0.50;0.50;;;22.20;61.30;;;;;;4993885;28;20050;-20
2022/08/28 07:26:51;;;;;;;0.60;0.60;;;22.30;60.90;;;;;;5000207;28;20123;-23
2022/08/28 07:29:17;;;;;;;0.70;0.70;;;22.40;60.70;;;;;;4997236;28;20041;-22
2022/08/28 07:31:48;;;;;;;1.02;0.98;;;22.50;60.50;;;;;;4998515;28;20553;-20
2022/08/28 07:34:14;;;;;;;1.00;0.65;;;22.70;60.00;;;;;;4999063;28;20547;-20
2022/08/28 07:36:40;;;;;;;1.05;0.80;;;22.70;59.80;;;;;;4997033;28;20038;-21
2022/08/28 07:39:06;;;;;;;0.88;0.80;;;22.70;60.00;;;;;;4995739;28;20057;-27
2022/08/28 07:41:32;;;;;;;0.60;0.50;;;22.60;60.70;;;;;;4998183;28;20585;-23
2022/08/28 07:46:43;;;;;;;0.73;0.50;;;22.40;60.50;;;;;;4997493;28;21402;-20
2022/08/28 07:49:08;;;;;;;1.65;0.70;;;22.30;60.90;;;;;;5001661;28;20049;-20
2022/08/28 07:51:34;;;;;;;0.60;0.50;;;22.20;61.50;;;;;;4997927;28;20046;-22
2022/08/28 07:54:01;;;;;;;1.27;0.60;;;22.30;61.40;;;;;;4996239;28;20061;-21
2022/08/28 07:56:28;;;;;;;0.55;0.55;;;22.10;61.70;;;;;;4995850;28;20051;-20
2022/08/28 07:58:55;;;;;;;0.70;0.70;;;22.10;62.00;;;;;;5000464;28;20045;-20
2022/08/28 08:01:21;;;;;;;0.63;0.50;;;22.20;62.00;;;;;;4995938;28;20038;-25
2022/08/28 08:03:46;;;;;;;0.50;0.50;;;22.20;62.20;;;;;;4999039;28;20044;-20
2022/08/28 08:06:12;;;;;;;1.17;1.08;;;22.20;62.30;;;;;;4996824;28;20136;-20
2022/08/28 08:08:38;;;;;;;1.50;0.80;;;22.20;62.70;;;;;;4991956;28;20038;-20
2022/08/28 08:11:05;;;;;;;0.85;0.63;;;22.20;63.60;;;;;;4998302;28;20048;-22
2022/08/28 08:13:31;;;;;;;0.63;0.60;;;22.20;63.00;;;;;;5000344;28;20042;-20
2022/08/28 08:16:10;;;;;;;1.27;0.73;;;22.00;62.70;;;;;;4998440;28;20053;-20
2022/08/28 08:18:36;;;;;;;0.57;0.50;;;22.00;63.00;;;;;;4645881;28;10000168;-19
2022/08/28 08:21:03;;;;;;;0.73;0.52;;;22.00;63.00;;;;;;4996403;28;20050;-22
2022/08/28 08:23:29;;;;;;;0.90;0.63;;;22.00;62.90;;;;;;4995457;28;20054;-23
2022/08/28 08:25:56;;;;;;;0.65;0.63;;;21.90;63.00;;;;;;4997067;28;20053;-20
2022/08/28 08:28:22;;;;;;;1.23;0.50;;;21.90;63.30;;;;;;4995869;28;20421;-20
2022/08/28 08:30:48;;;;;;;1.63;0.45;;;22.00;63.40;;;;;;4997065;28;20038;-21
2022/08/28 08:33:13;;;;;;;0.60;0.47;;;22.00;63.30;;;;;;4998666;28;20492;-21
2022/08/28 08:35:39;;;;;;;0.65;0.65;;;21.90;63.40;;;;;;5000115;28;20193;-21
2022/08/28 08:38:05;;;;;;;0.80;0.63;;;21.90;63.40;;;;;;4999191;28;20044;-21
2022/08/28 08:40:32;;;;;;;0.60;0.60;;;22.00;63.30;;;;;;4997859;28;20042;-23
2022/08/28 08:42:57;;;;;;;0.50;0.50;;;22.30;62.90;;;;;;4999504;28;20083;-20
2022/08/28 08:45:25;;;;;;;0.50;0.50;;;22.40;62.30;;;;;;4998449;28;20037;-19
2022/08/28 08:47:51;;;;;;;0.40;0.40;;;22.40;62.40;;;;;;5000608;28;20064;-23
2022/08/28 08:50:21;;;;;;;0.60;0.60;;;22.40;63.20;;;;;;5004999;28;20129;-20
2022/08/28 08:53:08;;;;;;;2.03;0.70;;;22.50;62.40;;;;;;4998644;28;20620;-20
2022/08/28 08:55:44;;;;;;;1.00;0.80;;;22.50;62.60;;;;;;5000751;28;20050;-20
2022/08/28 08:58:22;;;;;;;2.15;0.60;;;22.50;62.10;;;;;;5000324;28;20088;-20
2022/08/28 09:01:02;;;;;;;1.67;0.73;;;22.50;62.10;;;;;;5000639;28;20728;-20
2022/08/28 09:04:14;;;;;;;0.82;0.63;;;22.60;61.50;;;;;;5002526;28;20061;-19
2022/08/28 09:06:54;;;;;;;0.80;0.60;;;22.70;61.00;;;;;;5058194;28;20133;-20
2022/08/28 09:09:36;;;;;;;1.02;0.70;;;22.70;61.10;;;;;;5039400;28;20431;-20
2022/08/28 09:12:04;;;;;;;0.50;0.40;;;22.60;61.00;;;;;;5059336;28;20041;-21
2022/08/28 09:14:42;;;;;;;0.73;0.43;;;22.60;61.20;;;;;;5057141;28;20049;-20
2022/08/28 09:17:08;;;;;;;0.57;0.50;;;22.60;61.10;;;;;;5027741;28;20033;-29
2022/08/28 09:19:34;;;;;;;0.70;0.55;;;22.60;61.20;;;;;;5044002;28;20305;-20
2022/08/28 09:22:00;;;;;;;0.47;0.47;;;22.60;61.20;;;;;;5059046;28;20582;-24
2022/08/28 09:24:28;;;;;;;0.60;0.50;;;22.60;61.40;;;;;;5053597;28;20531;-20
2022/08/28 09:27:00;;;;;;;2.47;0.68;;;22.60;60.90;;;;;;5059911;28;20098;-21
2022/08/28 09:29:31;;;;;;;0.45;0.45;;;22.70;61.30;;;;;;5060577;28;20447;-20
2022/08/28 09:31:57;;;;;;;1.15;0.70;;;22.70;61.30;;;;;;5058708;28;20487;-23
2022/08/28 09:34:31;;;;;;;0.74;0.59;;;22.70;61.20;;;;;;4547967;28;10001705;-20
2022/08/28 09:36:57;;;;;;;0.80;0.70;;;22.70;61.60;;;;;;5036865;28;20138;-30
2022/08/28 09:39:30;;;;;;;0.85;0.63;;;22.60;61.20;;;;;;5050894;28;20033;-20
2022/08/28 09:45:10;;;;;;;0.88;0.88;;;22.70;61.90;;;;;;4990368;28;20124;-20
2022/08/28 09:47:40;;;;;;;0.73;0.60;;;22.70;61.60;;;;;;4991477;28;20058;-21
2022/08/28 09:50:30;;;;;;;1.65;0.50;;;22.80;61.30;;;;;;4992221;28;20046;-22
2022/08/28 09:52:58;;;;;;;1.70;1.30;;;22.80;61.50;;;;;;4995136;28;20099;-20
2022/08/28 09:55:35;;;;;;;1.10;1.10;;;22.80;62.00;;;;;;4994027;28;20057;-20
2022/08/28 09:58:01;;;;;;;0.85;0.82;;;22.90;61.90;;;;;;4997398;28;20042;-20
2022/08/28 10:00:32;;;;;;;0.68;0.68;;;22.90;61.90;;;;;;4995582;28;20676;-20
2022/08/28 10:03:06;;;;;;;1.02;0.80;;;22.90;61.70;;;;;;4994530;28;20042;-21
2022/08/28 10:05:38;;;;;;;0.80;0.65;;;22.90;61.80;;;;;;4992900;28;20061;-20
2022/08/28 10:08:11;;;;;;;0.60;0.60;;;22.90;61.60;;;;;;5007264;28;20416;-20
2022/08/28 10:10:46;;;;;;;1.20;0.93;;;22.90;61.70;;;;;;4979358;28;20864;-23
2022/08/28 10:13:35;;;;;;;0.73;0.70;;;22.90;61.70;;;;;;4993364;28;20148;-24
2022/08/28 10:16:08;;;;;;;0.90;0.90;;;23.00;61.80;;;;;;4991647;28;20148;-21
2022/08/28 10:18:59;;;;;;;0.80;0.80;;;23.00;61.80;;;;;;4992685;28;20054;-20
2022/08/28 10:21:27;;;;;;;0.85;0.77;;;23.00;61.80;;;;;;4992102;28;20047;-20
2022/08/28 10:24:07;;;;;;;0.90;0.60;;;23.00;61.90;;;;;;4990478;28;20064;-20
2022/08/28 10:26:45;;;;;;;1.40;1.30;;;23.00;62.30;;;;;;4992546;28;20050;-21
2022/08/28 10:29:20;;;;;;;4.95;1.85;;;23.00;62.40;;;;;;4994204;28;20042;-22
2022/08/28 10:32:07;;;;;;;3.67;1.70;;;23.00;62.80;;;;;;4992487;28;20046;-22
2022/08/28 10:34:39;;;;;;;2.45;1.33;;;23.10;62.60;;;;;;4991691;28;20057;-20
2022/08/28 10:37:14;;;;;;;1.77;1.10;;;23.10;62.50;;;;;;4991168;28;20049;-21
2022/08/28 10:39:52;;;;;;;2.00;1.23;;;23.10;62.70;;;;;;4996194;28;20528;-21
2022/08/28 10:42:29;;;;;;;2.15;1.10;;;23.10;62.80;;;;;;4996044;28;20053;-19
2022/08/28 10:45:07;;;;;;;2.03;0.85;;;23.10;62.80;;;;;;4997775;28;20042;-21
2022/08/28 10:47:34;;;;;;;14.65;4.75;;;23.10;62.50;;;;;;4994037;28;20132;-19
2022/08/28 10:50:04;;;;;;;17.17;7.43;;;23.10;62.60;;;;;;4996423;28;20049;-20
2022/08/28 10:52:37;;;;;;;78.55;36.97;;;23.20;62.70;;;;;;4998310;28;20060;-20
2022/08/28 10:55:12;;;;;;;166.95;79.45;;;23.20;63.00;;;;;;4991233;28;20050;-20
2022/08/28 10:57:40;;;;;;;241.70;119.63;;;23.20;62.70;;;;;;4994564;28;21530;-20
2022/08/28 11:00:14;;;;;;;249.93;122.45;;;23.10;62.80;;;;;;4997257;28;20117;-22
2022/08/28 11:02:43;;;;;;;254.27;125.60;;;23.20;62.60;;;;;;4994199;28;20053;-20
2022/08/28 11:05:10;;;;;;;239.70;118.85;;;23.20;62.80;;;;;;5064603;28;20060;-20
2022/08/28 11:07:44;;;;;;;257.83;137.45;;;23.20;62.70;;;;;;4986436;28;20140;-20
2022/08/28 11:10:30;;;;;;;266.00;131.95;;;23.20;62.60;;;;;;4995777;28;20254;-24
2022/08/28 11:12:56;;;;;;;249.15;128.10;;;23.20;62.80;;;;;;4999409;28;20108;-22
2022/08/28 11:15:28;;;;;;;265.63;128.55;;;23.20;62.50;;;;;;4648628;28;9999878;-20
2022/08/28 11:17:54;;;;;;;254.05;126.85;;;23.20;62.70;;;;;;4996802;28;20645;-20
2022/08/28 11:20:24;;;;;;;232.88;115.72;;;23.20;62.50;;;;;;4978788;28;20311;-21
2022/08/28 11:23:18;;;;;;;235.40;119.40;;;23.20;62.10;;;;;;4995651;28;20528;-24
2022/08/28 11:25:50;;;;;;;222.55;111.88;;;23.20;62.20;;;;;;4996760;28;20107;-20
2022/08/28 11:28:24;;;;;;;218.25;110.35;;;23.30;62.30;;;;;;4998782;28;20124;-20
2022/08/28 11:31:05;;;;;;;213.95;104.50;;;23.30;62.20;;;;;;4994881;28;20145;-20
2022/08/28 11:33:42;;;;;;;210.80;104.88;;;23.30;62.10;;;;;;4995694;28;20053;-19
2022/08/28 11:36:32;;;;;;;197.02;98.18;;;23.30;62.10;;;;;;4996525;28;20153;-20
2022/08/28 11:39:12;;;;;;;187.75;93.80;;;23.30;62.10;;;;;;4995094;28;20049;-23
2022/08/28 11:42:10;;;;;;;188.85;94.22;;;23.30;62.20;;;;;;4998437;28;20103;-20
2022/08/28 11:44:45;;;;;;;189.05;95.28;;;23.30;62.10;;;;;;5020487;28;20033;-21
2022/08/28 11:47:33;;;;;;;188.93;95.03;;;23.30;62.10;;;;;;4996870;28;20084;-22
2022/08/28 11:50:13;;;;;;;165.25;87.70;;;23.40;62.10;;;;;;4997475;28;20065;-20
2022/08/28 11:52:59;;;;;;;156.35;79.25;;;23.40;62.00;;;;;;4994457;28;20054;-23
2022/08/28 11:55:34;;;;;;;156.27;77.80;;;23.40;61.80;;;;;;5002159;28;20042;-20
2022/08/28 11:58:15;;;;;;;136.43;70.65;;;23.40;61.80;;;;;;4979208;28;20050;-25
2022/08/28 12:00:47;;;;;;;122.22;60.35;;;23.40;61.50;;;;;;4979014;28;20507;-25
2022/08/28 12:03:14;;;;;;;95.43;49.03;;;23.40;60.90;;;;;;4986396;28;20049;-28
2022/08/28 12:05:44;;;;;;;88.15;48.95;;;23.40;59.80;;;;;;4983881;28;20053;-22
2022/08/28 12:08:10;;;;;;;89.15;45.35;;;23.40;60.50;;;;;;4997027;28;20046;-23
2022/08/28 12:10:49;;;;;;;101.15;50.00;;;23.40;60.40;;;;;;4990563;28;20046;-22
2022/08/28 12:13:45;;;;;;;101.10;53.13;;;23.50;61.00;;;;;;4987309;28;20057;-22
2022/08/28 12:16:11;;;;;;;94.50;48.33;;;23.50;60.90;;;;;;4993683;28;20042;-21
2022/08/28 12:18:41;;;;;;;97.03;49.78;;;23.50;61.00;;;;;;4999762;28;20439;-21
2022/08/28 12:21:19;;;;;;;95.10;49.30;;;23.50;61.10;;;;;;4992174;28;20500;-24
2022/08/28 12:24:04;;;;;;;86.45;45.33;;;23.50;60.90;;;;;;4995801;28;20058;-21
2022/08/28 12:26:34;;;;;;;84.75;41.13;;;23.50;60.60;;;;;;4993939;28;20574;-21
2022/08/28 12:29:05;;;;;;;80.28;40.72;;;23.50;60.70;;;;;;5007243;28;20038;-22
2022/08/28 12:34:33;;;;;;;71.68;36.33;;;23.50;60.50;;;;;;5004596;28;20745;-21
2022/08/28 12:37:00;;;;;;;69.65;37.13;;;23.50;60.50;;;;;;4991302;28;20610;-22
2022/08/28 12:39:26;;;;;;;67.03;35.28;;;23.60;60.40;;;;;;4992534;28;20445;-23
2022/08/28 12:41:51;;;;;;;62.15;33.83;;;23.50;60.60;;;;;;4992644;28;20052;-21
2022/08/28 12:44:22;;;;;;;62.40;33.67;;;23.60;60.70;;;;;;4991318;28;20054;-21
2022/08/28 12:46:48;;;;;;;57.47;33.17;;;23.50;60.90;;;;;;4997801;28;20045;-22
2022/08/28 12:49:30;;;;;;;60.38;33.83;;;23.50;60.50;;;;;;4991232;28;20073;-22
2022/08/28 12:52:16;;;;;;;61.45;35.78;;;23.60;60.50;;;;;;4996303;28;20038;-22
2022/08/28 12:54:42;;;;;;;55.75;30.48;;;23.60;60.50;;;;;;4997264;28;20093;-21
2022/08/28 12:57:16;;;;;;;51.47;29.83;;;23.60;60.20;;;;;;4995507;28;20075;-25
2022/08/28 12:59:43;;;;;;;48.83;28.02;;;23.60;60.20;;;;;;5001302;28;21029;-21
2022/08/28 13:02:25;;;;;;;48.42;26.38;;;23.60;59.90;;;;;;4998288;28;20090;-22
2022/08/28 13:05:03;;;;;;;40.28;23.30;;;23.60;59.80;;;;;;4998566;28;20074;-23
2022/08/28 13:07:31;;;;;;;39.55;21.88;;;23.60;59.70;;;;;;5004242;28;20041;-21
2022/08/28 13:09:59;;;;;;;36.42;21.25;;;23.60;59.60;;;;;;5008192;28;20045;-21